Time;durP1;ratioP1;P1;durP2;ratioP2;P2;SDS_P1;SDS_P2;PMS_P1;PMS_P2;Temp;Humidity;BMP_temperature;BMP_pressure;BME280_temperature;BME280_humidity;BME280_pressure;Samples;Min_cycle;Max_cycle;Signal;HPM_P1;HPM_P2
2022/06/05 00:01:21;;;;;;;5.47;3.40;;;;;;;22.56;51.60;101954.41;5075126;28;20108;-53
2022/06/05 00:04:12;;;;;;;4.72;3.53;;;;;;;22.56;51.99;101943.63;5020010;28;20049;-50
2022/06/05 00:06:57;;;;;;;6.53;3.40;;;;;;;22.54;51.99;101946.44;5075553;28;20058;-51
2022/06/05 00:09:50;;;;;;;6.57;3.25;;;;;;;22.51;51.69;101946.75;5107148;28;20427;-50
2022/06/05 00:12:22;;;;;;;3.97;3.13;;;;;;;22.51;51.97;101944.06;5080840;28;20119;-52
2022/06/05 00:14:48;;;;;;;7.28;3.53;;;;;;;22.50;52.00;101939.66;5078799;28;20323;-52
2022/06/05 00:17:18;;;;;;;6.93;3.60;;;;;;;22.49;51.78;101937.97;5073628;28;20966;-53
2022/06/05 00:19:48;;;;;;;3.75;2.70;;;;;;;22.48;52.05;101930.88;5079481;28;20123;-50
2022/06/05 00:22:16;;;;;;;4.78;3.22;;;;;;;22.47;51.94;101928.31;5079931;28;20060;-52
2022/06/05 00:24:43;;;;;;;4.68;3.20;;;;;;;22.46;52.04;101929.34;5075344;28;20498;-52
2022/06/05 00:27:14;;;;;;;6.40;2.92;;;;;;;22.45;51.95;101931.19;5075789;28;20040;-52
2022/06/05 00:30:00;;;;;;;3.28;2.67;;;;;;;22.42;52.16;101936.91;5075272;28;20053;-52
2022/06/05 00:32:33;;;;;;;8.77;3.20;;;;;;;22.43;52.03;101941.28;5074908;28;20040;-53
2022/06/05 00:35:00;;;;;;;7.45;2.83;;;;;;;22.41;52.24;101940.63;5075493;28;20324;-52
2022/06/05 00:37:45;;;;;;;3.95;2.80;;;;;;;22.39;52.03;101938.06;5077967;28;20048;-52
2022/06/05 00:40:52;;;;;;;5.90;2.70;;;;;;;22.39;51.79;101931.81;5080452;28;20048;-50
2022/06/05 00:43:23;;;;;;;4.18;2.95;;;;;;;22.39;52.18;101921.00;4995059;28;20499;-49
2022/06/05 00:45:51;;;;;;;7.07;3.33;;;;;;;22.38;51.96;101922.84;4996497;28;20050;-51
2022/06/05 00:48:19;;;;;;;5.07;2.85;;;;;;;22.37;51.96;101915.75;5036838;28;20553;-51
2022/06/05 00:50:47;;;;;;;3.72;2.72;;;;;;;22.35;52.03;101908.81;5076863;28;20120;-50
2022/06/05 00:53:14;;;;;;;3.95;2.65;;;;;;;22.35;51.91;101903.41;5077498;28;20083;-51
2022/06/05 00:55:47;;;;;;;4.18;2.83;;;;;;;22.34;52.20;101907.13;5075528;28;20044;-51
2022/06/05 00:58:14;;;;;;;5.13;3.22;;;;;;;22.33;51.95;101895.47;5078688;28;20040;-53
2022/06/05 01:00:46;;;;;;;4.22;2.58;;;;;;;22.32;52.36;101893.78;5077879;28;20046;-52
2022/06/05 01:03:13;;;;;;;5.82;2.97;;;;;;;22.32;52.32;101895.63;5078318;28;20040;-53
2022/06/05 01:05:40;;;;;;;4.05;2.65;;;;;;;22.32;52.10;101892.94;5073634;28;20105;-53
2022/06/05 01:08:08;;;;;;;6.72;3.42;;;;;;;22.30;52.29;101895.78;5075940;28;20510;-52
2022/06/05 01:10:59;;;;;;;4.45;2.67;;;;;;;22.28;52.43;101897.78;5072594;28;20050;-50
2022/06/05 01:13:42;;;;;;;3.92;2.75;;;;;;;22.26;52.40;101890.84;5072948;28;20052;-51
2022/06/05 01:16:18;;;;;;;7.13;3.17;;;;;;;22.27;52.08;101892.53;5077358;28;20052;-48
2022/06/05 01:19:04;;;;;;;3.90;2.80;;;;;;;22.25;52.17;101884.59;5079205;28;20485;-51
2022/06/05 01:22:06;;;;;;;6.15;3.08;;;;;;;22.24;52.45;101885.59;5078459;28;20056;-50
2022/06/05 01:24:55;;;;;;;3.40;2.45;;;;;;;22.22;52.48;101875.97;5077230;28;20052;-54
2022/06/05 01:27:26;;;;;;;3.20;2.70;;;;;;;22.24;52.40;101879.38;5079115;28;20040;-52
2022/06/05 01:30:16;;;;;;;3.28;2.25;;;;;;;22.21;52.56;101882.38;5077542;28;20052;-51
2022/06/05 01:32:54;;;;;;;3.55;2.63;;;;;;;22.22;52.53;101879.50;5079498;28;20136;-50
2022/06/05 01:35:33;;;;;;;4.13;2.70;;;;;;;22.18;52.31;101881.66;5079067;28;20048;-51
2022/06/05 01:38:06;;;;;;;6.82;2.88;;;;;;;22.18;52.44;101876.25;5077322;28;20055;-51
2022/06/05 01:40:45;;;;;;;4.40;2.80;;;;;;;22.17;52.50;101890.78;5081890;28;20130;-52
2022/06/05 01:43:34;;;;;;;5.53;2.58;;;;;;;22.16;52.23;101882.84;5079450;28;20040;-50
2022/06/05 01:46:03;;;;;;;4.30;2.40;;;;;;;22.17;52.57;101884.53;5076965;28;20128;-52
2022/06/05 01:48:37;;;;;;;3.75;2.40;;;;;;;22.16;52.47;101889.09;5078600;28;20055;-52
2022/06/05 01:51:07;;;;;;;4.40;2.78;;;;;;;22.16;52.38;101889.09;5079528;28;20050;-52
2022/06/05 01:53:44;;;;;;;5.03;2.90;;;;;;;22.15;52.30;101884.69;5078525;28;20051;-51
2022/06/05 01:56:26;;;;;;;3.83;2.85;;;;;;;22.13;52.52;101870.50;5079945;28;20062;-51
2022/06/05 01:59:01;;;;;;;3.92;2.33;;;;;;;22.14;52.35;101871.34;5081918;28;20123;-51
2022/06/05 02:01:34;;;;;;;3.80;2.72;;;;;;;22.13;52.56;101867.78;5081806;28;20420;-52
2022/06/05 02:04:43;;;;;;;6.17;2.70;;;;;;;22.10;52.70;101870.75;5075661;28;20051;-51
2022/06/05 02:07:16;;;;;;;3.33;2.55;;;;;;;22.14;52.43;101868.63;5082158;28;20482;-51
2022/06/05 02:09:53;;;;;;;6.20;2.70;;;;;;;22.11;52.67;101868.91;5077669;28;20047;-50
2022/06/05 02:12:22;;;;;;;3.38;2.50;;;;;;;22.11;52.52;101869.78;5076126;28;20063;-51
2022/06/05 02:14:48;;;;;;;4.97;2.95;;;;;;;22.11;52.40;101874.31;5081612;28;20152;-52
2022/06/05 02:17:15;;;;;;;3.45;2.75;;;;;;;22.10;52.37;101870.75;5078342;28;20876;-52
2022/06/05 02:19:43;;;;;;;4.07;2.28;;;;;;;22.09;52.42;101866.38;5077113;28;20048;-48
2022/06/05 02:22:43;;;;;;;4.20;2.55;;;;;;;22.07;52.41;101871.09;5076647;28;20051;-52
2022/06/05 02:25:11;;;;;;;7.20;2.80;;;;;;;22.08;52.28;101875.47;5077134;28;20048;-48
2022/06/05 02:27:38;;;;;;;2.45;2.10;;;;;;;22.06;52.63;101866.69;5076723;28;20500;-53
2022/06/05 02:30:07;;;;;;;3.97;2.92;;;;;;;22.07;52.49;101862.13;5078481;28;20063;-51
2022/06/05 02:32:55;;;;;;;2.78;2.40;;;;;;;22.06;52.39;101871.22;5080888;28;20135;-52
2022/06/05 02:35:52;;;;;;;3.45;2.38;;;;;;;22.06;52.38;101871.22;5078871;28;20525;-51
2022/06/05 02:38:34;;;;;;;2.80;2.30;;;;;;;22.06;52.48;101863.97;5075907;28;20040;-51
2022/06/05 02:41:23;;;;;;;3.92;2.80;;;;;;;22.06;52.28;101863.13;5079204;28;20151;-48
2022/06/05 02:44:29;;;;;;;3.20;2.70;;;;;;;22.05;52.66;101864.97;5081010;28;20385;-52
2022/06/05 02:47:17;;;;;;;4.50;2.28;;;;;;;22.05;52.40;101845.25;5074690;28;20048;-48
2022/06/05 02:49:47;;;;;;;3.20;2.60;;;;;;;22.05;52.61;101829.03;5073972;28;20054;-52
2022/06/05 02:52:14;;;;;;;2.75;2.50;;;;;;;22.05;52.49;101831.75;5079871;28;20048;-48
2022/06/05 02:54:59;;;;;;;3.80;2.40;;;;;;;22.03;52.61;101836.44;5078892;28;20041;-53
2022/06/05 02:57:26;;;;;;;4.45;2.22;;;;;;;22.03;52.70;101834.63;5079210;28;20058;-52
2022/06/05 02:59:52;;;;;;;4.22;2.17;;;;;;;22.03;52.49;101813.00;5076383;28;20046;-50
2022/06/05 03:05:05;;;;;;;3.63;2.40;;;;;;;22.03;52.47;101801.34;5074309;28;20054;-51
2022/06/05 03:07:31;;;;;;;3.17;2.25;;;;;;;22.03;52.37;101795.94;5107747;27;20048;-50
2022/06/05 03:09:58;;;;;;;4.30;2.83;;;;;;;22.02;52.58;101800.50;5077972;28;20032;-51
2022/06/05 03:12:25;;;;;;;4.10;2.63;;;;;;;22.02;52.63;101789.69;5078136;28;20044;-50
2022/06/05 03:14:56;;;;;;;3.13;2.33;;;;;;;22.01;52.67;101782.59;5075911;28;20036;-52
2022/06/05 03:17:23;;;;;;;3.45;2.50;;;;;;;22.01;52.62;101765.56;5077979;28;20051;-49
2022/06/05 03:19:49;;;;;;;5.07;2.38;;;;;;;22.01;52.48;101758.31;5076651;28;20046;-49
2022/06/05 03:22:16;;;;;;;3.75;2.65;;;;;;;21.99;52.28;101744.16;5077538;28;20355;-51
2022/06/05 03:24:42;;;;;;;3.08;2.40;;;;;;;21.99;52.73;101738.75;5078203;28;20071;-51
2022/06/05 03:27:09;;;;;;;2.97;2.30;;;;;;;21.98;52.92;101734.31;5075783;28;20044;-52
2022/06/05 03:29:36;;;;;;;3.83;2.47;;;;;;;21.98;52.78;101755.91;5074660;28;20054;-50
2022/06/05 03:32:03;;;;;;;6.95;2.50;;;;;;;21.98;52.41;101750.53;5078258;28;20571;-51
2022/06/05 03:34:29;;;;;;;3.17;2.40;;;;;;;21.98;52.60;101749.69;5079442;28;20052;-51
2022/06/05 03:36:56;;;;;;;2.80;2.25;;;;;;;21.97;52.86;101748.84;5080618;28;20056;-51
2022/06/05 03:39:22;;;;;;;3.60;2.45;;;;;;;21.98;52.81;101746.97;5077725;28;20130;-51
2022/06/05 03:41:49;;;;;;;2.78;2.22;;;;;;;21.97;52.85;101748.00;5074385;28;20042;-51
2022/06/05 03:44:15;;;;;;;3.42;2.22;;;;;;;21.97;52.83;101740.75;5076071;28;20044;-50
2022/06/05 03:46:42;;;;;;;3.15;2.22;;;;;;;21.94;52.88;101730.25;5076964;28;20055;-52
2022/06/05 03:49:10;;;;;;;4.05;2.42;;;;;;;21.94;52.79;101732.94;5075472;28;20047;-52
2022/06/05 03:51:37;;;;;;;3.80;2.60;;;;;;;21.92;52.83;101730.41;5080031;28;20047;-50
2022/06/05 03:54:03;;;;;;;3.53;2.63;;;;;;;21.92;52.70;101741.22;5076924;28;20049;-53
2022/06/05 03:56:30;;;;;;;2.83;2.28;;;;;;;21.93;53.06;101734.81;5082892;28;20048;-49
2022/06/05 03:58:57;;;;;;;3.10;2.33;;;;;;;21.92;52.73;101730.41;5079289;28;20040;-51
2022/06/05 04:01:26;;;;;;;4.05;2.10;;;;;;;21.92;52.96;101735.81;5078950;28;20117;-52
2022/06/05 04:03:54;;;;;;;4.53;2.33;;;;;;;21.93;52.78;101720.47;5074085;28;20044;-48
2022/06/05 04:06:29;;;;;;;3.97;2.30;;;;;;;21.92;52.82;101716.09;5076921;28;20040;-49
2022/06/05 04:08:58;;;;;;;2.78;2.40;;;;;;;21.91;52.91;101709.84;5075659;28;20134;-50
2022/06/05 04:11:26;;;;;;;3.67;2.40;;;;;;;21.91;52.59;101711.69;5073879;28;20044;-50
2022/06/05 04:13:53;;;;;;;3.55;2.42;;;;;;;21.90;52.64;101712.69;5078156;28;20052;-50
2022/06/05 04:16:22;;;;;;;3.95;2.58;;;;;;;21.90;52.94;101715.38;5079107;28;20058;-50
2022/06/05 04:18:50;;;;;;;2.92;2.38;;;;;;;21.89;52.91;101714.53;5078054;28;20048;-49
2022/06/05 04:21:30;;;;;;;3.00;2.30;;;;;;;21.86;52.91;101720.25;5074700;28;20052;-49
2022/06/05 04:23:58;;;;;;;4.43;2.38;;;;;;;21.85;52.82;101713.16;5071424;28;20049;-47
2022/06/05 04:26:28;;;;;;;2.88;2.42;;;;;;;21.85;52.76;101731.19;5075971;28;20056;-51
2022/06/05 04:28:56;;;;;;;4.80;2.47;;;;;;;21.85;52.60;101734.75;5075821;28;20074;-47
2022/06/05 04:31:25;;;;;;;4.97;2.33;;;;;;;21.85;52.84;101744.69;5075004;28;20051;-51
2022/06/05 04:33:55;;;;;;;4.60;2.40;;;;;;;21.85;52.93;101740.16;5077790;28;20040;-50
2022/06/05 04:36:22;;;;;;;3.45;2.22;;;;;;;21.85;52.87;101750.09;5073161;28;20420;-50
2022/06/05 04:38:49;;;;;;;2.83;2.33;;;;;;;21.85;52.43;101739.31;5074045;28;20035;-52
2022/06/05 04:41:18;;;;;;;3.72;2.55;;;;;;;21.85;52.93;101733.91;5073932;28;20062;-52
2022/06/05 04:43:46;;;;;;;5.95;2.40;;;;;;;21.86;52.83;101732.88;5074015;28;20040;-51
2022/06/05 04:46:13;;;;;;;3.55;2.20;;;;;;;21.85;52.60;101740.16;5074513;28;20143;-50
2022/06/05 04:48:40;;;;;;;3.92;2.25;;;;;;;21.85;52.89;101723.94;5072626;28;20056;-51
2022/06/05 04:51:08;;;;;;;3.28;2.25;;;;;;;21.86;53.01;101725.63;5075823;28;20057;-50
2022/06/05 04:53:35;;;;;;;3.08;2.20;;;;;;;21.85;52.77;101723.09;5076647;28;20048;-51
2022/06/05 04:56:04;;;;;;;3.45;2.20;;;;;;;21.85;52.77;101726.66;5082426;28;20052;-51
2022/06/05 04:58:31;;;;;;;2.45;2.10;;;;;;;21.85;52.79;101720.41;5079146;28;20175;-50
2022/06/05 05:00:58;;;;;;;5.63;2.88;;;;;;;21.84;52.78;101722.25;5078535;28;20048;-51
2022/06/05 05:03:25;;;;;;;4.60;2.13;;;;;;;21.84;52.77;101716.03;5081846;28;20044;-51
2022/06/05 05:05:52;;;;;;;3.80;2.50;;;;;;;21.83;52.83;101715.19;5076584;28;20071;-50
2022/06/05 05:08:19;;;;;;;3.42;2.15;;;;;;;21.83;52.98;101708.91;5079478;28;20479;-51
2022/06/05 05:10:46;;;;;;;3.70;2.40;;;;;;;21.82;52.72;101705.38;5080661;28;20059;-52
2022/06/05 05:13:13;;;;;;;4.03;2.42;;;;;;;21.82;52.87;101699.97;5079924;28;20046;-50
2022/06/05 05:15:39;;;;;;;2.75;2.05;;;;;;;21.82;52.83;101696.44;5079693;28;20327;-51
2022/06/05 05:18:06;;;;;;;3.45;2.42;;;;;;;21.81;52.79;101695.59;5076563;28;20072;-51
2022/06/05 05:20:33;;;;;;;3.97;2.20;;;;;;;21.81;52.95;101706.38;5077411;28;20049;-47
2022/06/05 05:22:59;;;;;;;3.47;2.35;;;;;;;21.80;53.00;101704.69;5080220;28;20056;-50
2022/06/05 05:25:26;;;;;;;3.42;2.38;;;;;;;21.80;52.81;101701.16;5077701;28;20054;-50
2022/06/05 05:27:52;;;;;;;3.10;2.58;;;;;;;21.80;52.82;101702.00;5079549;28;20044;-52
2022/06/05 05:30:19;;;;;;;4.88;2.35;;;;;;;21.81;52.62;101705.53;5080392;28;20044;-48
2022/06/05 05:32:45;;;;;;;2.90;2.30;;;;;;;21.80;52.82;101702.00;5080851;28;20083;-50
2022/06/05 05:35:12;;;;;;;3.92;2.15;;;;;;;21.80;52.71;101710.09;5079971;28;20502;-49
2022/06/05 05:37:39;;;;;;;3.00;2.25;;;;;;;21.80;52.77;101703.84;5081865;28;20351;-49
2022/06/05 05:42:51;;;;;;;2.90;2.42;;;;;;;21.80;52.82;101701.16;5079900;28;20062;-51
2022/06/05 05:45:18;;;;;;;2.85;2.30;;;;;;;21.79;52.99;101705.72;5079315;28;20139;-49
2022/06/05 05:47:44;;;;;;;3.15;2.22;;;;;;;21.79;52.76;101696.72;5078478;28;20059;-52
2022/06/05 05:50:15;;;;;;;4.18;2.33;;;;;;;21.79;52.81;101704.84;5077920;28;20043;-52
2022/06/05 05:52:45;;;;;;;4.18;2.92;;;;;;;21.78;52.96;101695.91;5074464;28;20056;-50
2022/06/05 05:55:17;;;;;;;3.95;2.42;;;;;;;21.79;52.75;101694.03;5079861;28;20126;-50
2022/06/05 05:57:46;;;;;;;3.42;2.47;;;;;;;21.78;52.71;101695.06;5078382;28;20211;-48
2022/06/05 06:00:15;;;;;;;3.55;2.17;;;;;;;21.76;52.90;101684.41;5080364;28;20434;-51
2022/06/05 06:02:43;;;;;;;3.50;1.92;;;;;;;21.77;52.99;101687.97;5075195;28;20537;-51
2022/06/05 06:05:13;;;;;;;3.25;2.22;;;;;;;21.76;52.87;101694.38;5079024;28;20040;-50
2022/06/05 06:07:40;;;;;;;3.75;2.67;;;;;;;21.76;52.88;101697.06;5075577;28;20050;-49
2022/06/05 06:10:07;;;;;;;5.40;2.67;;;;;;;21.76;52.85;101691.69;5079699;28;20040;-50
2022/06/05 06:12:34;;;;;;;3.22;2.42;;;;;;;21.75;53.18;101693.53;5073577;28;20054;-49
2022/06/05 06:15:01;;;;;;;3.88;2.20;;;;;;;21.75;52.86;101690.84;5075807;28;20036;-50
2022/06/05 06:17:28;;;;;;;3.30;2.40;;;;;;;21.75;53.06;101687.25;5076610;28;20039;-52
2022/06/05 06:19:55;;;;;;;5.55;2.83;;;;;;;21.75;52.64;101695.34;5076389;28;20039;-51
2022/06/05 06:22:21;;;;;;;2.92;2.20;;;;;;;21.76;53.02;101697.06;5079506;28;20050;-48
2022/06/05 06:24:48;;;;;;;3.88;2.72;;;;;;;21.76;52.71;101697.06;5080026;28;20130;-49
2022/06/05 06:27:15;;;;;;;3.40;2.47;;;;;;;21.75;52.74;101693.53;5073637;28;20048;-49
2022/06/05 06:29:41;;;;;;;3.65;2.67;;;;;;;21.75;53.02;101689.97;5077136;28;20055;-50
2022/06/05 06:32:08;;;;;;;2.88;2.40;;;;;;;21.75;52.75;101684.56;5075835;28;20127;-48
2022/06/05 06:34:35;;;;;;;3.97;2.40;;;;;;;21.75;53.06;101682.75;5079116;28;20044;-50
2022/06/05 06:37:02;;;;;;;2.35;2.15;;;;;;;21.75;52.77;101680.03;5077856;28;20047;-49
2022/06/05 06:39:28;;;;;;;3.45;2.40;;;;;;;21.76;52.66;101670.09;5076222;28;20331;-50
2022/06/05 06:41:55;;;;;;;3.50;2.35;;;;;;;21.77;52.75;101674.47;5078604;28;20053;-51
2022/06/05 06:44:22;;;;;;;3.30;2.17;;;;;;;21.76;52.80;101675.47;5074829;28;20036;-48
2022/06/05 06:46:49;;;;;;;2.53;2.10;;;;;;;21.75;52.75;101668.38;5074637;28;20058;-48
2022/06/05 06:49:15;;;;;;;3.60;2.78;;;;;;;21.75;52.69;101666.53;5076822;28;20049;-48
2022/06/05 06:51:42;;;;;;;4.07;2.40;;;;;;;21.76;52.71;101651.19;5075334;28;20045;-51
2022/06/05 06:54:09;;;;;;;2.72;2.35;;;;;;;21.76;52.60;101638.56;5074962;28;20040;-49
2022/06/05 06:56:36;;;;;;;3.42;2.42;;;;;;;21.76;52.63;101643.09;5076871;28;20059;-50
2022/06/05 06:59:03;;;;;;;3.92;2.20;;;;;;;21.77;52.44;101634.00;5076393;28;20128;-51
2022/06/05 07:01:30;;;;;;;3.13;2.30;;;;;;;21.76;52.61;101633.16;5076454;28;20051;-50
2022/06/05 07:03:57;;;;;;;4.93;2.58;;;;;;;21.76;52.43;101627.75;5076937;28;20051;-50
2022/06/05 07:06:23;;;;;;;2.97;2.30;;;;;;;21.78;52.61;101622.19;5077031;28;20154;-51
2022/06/05 07:08:50;;;;;;;3.05;2.15;;;;;;;21.78;52.71;101620.34;5076309;28;20041;-49
2022/06/05 07:11:17;;;;;;;3.45;2.60;;;;;;;21.80;52.49;101617.50;5078317;28;20051;-48
2022/06/05 07:13:47;;;;;;;3.10;2.25;;;;;;;21.80;52.25;101614.78;5084537;28;20427;-48
2022/06/05 07:16:13;;;;;;;2.78;2.25;;;;;;;21.81;52.68;101603.00;5073651;28;20036;-51
2022/06/05 07:18:41;;;;;;;3.28;2.58;;;;;;;21.83;52.29;101604.53;5074048;28;20126;-49
2022/06/05 07:21:10;;;;;;;3.60;2.10;;;;;;;21.84;52.35;101594.56;5075814;28;20048;-51
2022/06/05 07:23:36;;;;;;;3.22;2.60;;;;;;;21.85;52.46;101594.41;5073340;28;20054;-49
2022/06/05 07:26:08;;;;;;;5.22;2.95;;;;;;;21.86;52.37;101595.25;5075100;28;20044;-49
2022/06/05 07:28:35;;;;;;;4.18;2.58;;;;;;;21.90;52.30;101591.22;5076551;28;20070;-50
2022/06/05 07:31:03;;;;;;;4.53;2.70;;;;;;;21.90;52.49;101591.22;5077564;28;20038;-49
2022/06/05 07:33:31;;;;;;;4.40;3.15;;;;;;;21.92;52.22;101583.81;5077378;28;20042;-50
2022/06/05 07:35:59;;;;;;;5.18;3.00;;;;;;;21.93;52.27;101589.03;5071000;28;20138;-50
2022/06/05 07:38:26;;;;;;;6.53;3.28;;;;;;;21.94;52.04;101584.50;5071557;28;20044;-51
2022/06/05 07:40:53;;;;;;;3.30;2.70;;;;;;;21.96;51.90;101571.69;5072926;28;20052;-52
2022/06/05 07:43:21;;;;;;;4.47;2.83;;;;;;;21.99;51.92;101570.50;5071490;28;20058;-51
2022/06/05 07:45:48;;;;;;;6.10;3.22;;;;;;;22.01;52.01;101569.34;5076185;28;20126;-52
2022/06/05 07:48:18;;;;;;;7.22;3.58;;;;;;;22.04;51.84;101565.47;5075081;28;20044;-51
2022/06/05 07:56:17;;;;;;;5.40;3.22;;;;;;;22.09;51.76;101542.38;5074084;28;20119;-51
2022/06/05 07:58:44;;;;;;;6.35;3.85;;;;;;;22.11;51.57;101539.50;5074478;28;20139;-51
2022/06/05 08:01:10;;;;;;;6.72;4.22;;;;;;;22.13;51.49;101532.13;5072849;28;20040;-52
2022/06/05 08:03:37;;;;;;;7.13;4.47;;;;;;;22.14;51.63;101536.50;5078855;28;20044;-51
2022/06/05 08:06:04;;;;;;;7.50;4.55;;;;;;;22.15;51.49;101524.69;5073362;28;20043;-51
2022/06/05 08:08:31;;;;;;;6.80;4.53;;;;;;;22.16;51.41;101510.22;5073334;28;20423;-51
2022/06/05 08:11:04;;;;;;;7.30;4.65;;;;;;;22.17;51.43;101504.63;5071462;28;20040;-51
2022/06/05 08:13:37;;;;;;;11.05;5.35;;;;;;;22.19;51.26;101501.75;5075325;28;20040;-52
2022/06/05 08:16:05;;;;;;;8.90;5.63;;;;;;;22.21;51.37;101496.22;5071712;28;20052;-49
2022/06/05 08:18:31;;;;;;;9.65;6.07;;;;;;;22.22;51.53;101492.50;5071377;28;20049;-51
2022/06/05 08:20:58;;;;;;;9.85;6.47;;;;;;;22.22;51.78;101479.84;5072679;28;20052;-50
2022/06/05 08:23:25;;;;;;;9.60;6.05;;;;;;;22.24;51.55;101477.81;5069664;28;20630;-51
2022/06/05 08:25:52;;;;;;;10.98;6.40;;;;;;;22.25;51.25;101475.97;5071661;28;20059;-48
2022/06/05 08:28:19;;;;;;;10.18;6.30;;;;;;;22.25;50.93;101462.47;5077033;28;20052;-50
2022/06/05 08:30:52;;;;;;;11.23;6.97;;;;;;;22.27;50.98;101461.28;5073862;28;20048;-50
2022/06/05 08:33:20;;;;;;;10.65;6.75;;;;;;;22.28;51.21;101459.44;5074013;28;20074;-50
2022/06/05 08:35:51;;;;;;;12.35;7.57;;;;;;;22.29;50.70;101458.41;5076116;28;20131;-49
2022/06/05 08:41:29;;;;;;;10.60;7.22;;;;;;;22.29;50.82;101464.66;5075060;28;20140;-51
2022/06/05 08:44:21;;;;;;;10.65;6.85;;;;;;;22.30;51.13;101463.63;5080343;28;20044;-50
2022/06/05 08:46:53;;;;;;;11.80;7.47;;;;;;;22.32;50.77;101464.34;5080714;28;20040;-51
2022/06/05 08:49:46;;;;;;;18.33;10.50;;;;;;;22.33;50.91;101457.91;5076646;28;20043;-48
2022/06/05 08:52:53;;;;;;;26.67;15.18;;;;;;;22.33;50.56;101460.63;5076047;28;20036;-51
2022/06/05 08:55:34;;;;;;;36.00;18.80;;;;;;;22.34;50.72;101458.75;5071276;28;20127;-50
2022/06/05 08:58:04;;;;;;;37.55;19.73;;;;;;;22.34;50.68;101456.06;5078261;28;20054;-49
2022/06/05 09:00:45;;;;;;;41.28;23.27;;;;;;;22.35;50.67;101471.25;5075517;28;20040;-49
2022/06/05 09:03:54;;;;;;;45.50;25.75;;;;;;;22.35;50.24;101466.72;5071858;28;20082;-51
2022/06/05 09:06:50;;;;;;;51.45;27.08;;;;;;;22.36;50.69;101468.38;5062490;28;20041;-52
2022/06/05 09:09:26;;;;;;;48.45;25.98;;;;;;;22.37;50.42;101463.81;5071396;28;20036;-50
2022/06/05 09:12:02;;;;;;;42.22;24.23;;;;;;;22.38;50.43;101466.34;5070852;28;20041;-51
2022/06/05 09:14:42;;;;;;;38.20;22.67;;;;;;;22.39;50.31;101472.59;5071732;28;20431;-51
2022/06/05 09:17:20;;;;;;;39.90;21.90;;;;;;;22.38;49.92;101466.34;5073987;28;20062;-53
2022/06/05 09:19:50;;;;;;;32.00;18.65;;;;;;;22.40;50.27;101458.94;5070710;28;20054;-51
2022/06/05 09:22:23;;;;;;;41.47;19.15;;;;;;;22.41;50.16;101474.13;5072106;28;20062;-51
2022/06/05 09:25:08;;;;;;;47.70;18.60;;;;;;;22.39;50.17;101459.97;5073311;28;20518;-50
2022/06/05 09:27:44;;;;;;;48.97;18.15;;;;;;;22.41;50.10;101462.47;5075831;28;20059;-49
2022/06/05 09:30:28;;;;;;;41.55;16.10;;;;;;;22.41;50.19;101463.31;5076761;28;20354;-50
2022/06/05 09:33:08;;;;;;;46.00;15.27;;;;;;;22.42;50.06;101472.25;5074384;28;20036;-49
2022/06/05 09:35:40;;;;;;;36.67;15.32;;;;;;;22.43;50.44;101468.53;5075594;28;21310;-48
2022/06/05 09:38:24;;;;;;;29.15;13.90;;;;;;;22.43;50.55;101465.84;5072663;28;20127;-49
2022/06/05 09:41:01;;;;;;;28.05;12.73;;;;;;;22.44;50.53;101466.72;5075876;28;20054;-49
2022/06/05 09:43:30;;;;;;;24.42;12.68;;;;;;;22.45;50.19;101458.44;5073012;28;20159;-50
2022/06/05 09:46:08;;;;;;;24.83;11.82;;;;;;;22.45;50.21;101452.19;5071654;28;20163;-48
2022/06/05 09:48:46;;;;;;;25.70;12.70;;;;;;;22.45;50.27;101444.94;5074391;28;20372;-48
2022/06/05 09:51:15;;;;;;;21.33;12.13;;;;;;;22.46;50.33;101457.41;5074789;28;20047;-48
2022/06/05 09:53:48;;;;;;;23.15;11.77;;;;;;;22.47;50.33;101452.84;5071972;28;20051;-50
2022/06/05 09:56:31;;;;;;;27.10;11.65;;;;;;;22.47;50.29;101461.78;5071676;28;20131;-52
2022/06/05 09:59:17;;;;;;;27.02;12.18;;;;;;;22.47;50.74;101461.78;5077045;28;20124;-49
2022/06/05 10:02:06;;;;;;;20.55;11.15;;;;;;;22.48;50.62;101457.25;5074595;28;20040;-48
2022/06/05 10:04:34;;;;;;;27.88;12.07;;;;;;;22.49;50.26;101448.13;5074904;28;20132;-51
2022/06/05 10:07:31;;;;;;;20.08;10.80;;;;;;;22.49;50.68;101448.13;5073974;28;20051;-50
2022/06/05 10:10:03;;;;;;;22.10;11.23;;;;;;;22.49;50.43;101457.09;5071507;28;20044;-50
2022/06/05 10:12:55;;;;;;;19.08;10.65;;;;;;;22.49;50.75;101448.13;5073268;28;20052;-51
2022/06/05 10:15:37;;;;;;;16.45;9.20;;;;;;;22.50;50.61;101445.25;5073164;28;20040;-52
2022/06/05 10:18:13;;;;;;;21.40;9.77;;;;;;;22.50;51.00;101442.56;5070832;28;20335;-53
2022/06/05 10:21:05;;;;;;;20.95;9.52;;;;;;;22.53;50.72;101449.50;5070502;28;20052;-47
2022/06/05 10:23:50;;;;;;;20.27;8.63;;;;;;;22.53;50.56;101438.69;5076491;28;20050;-48
2022/06/05 10:26:25;;;;;;;15.00;9.15;;;;;;;22.52;50.86;101428.91;5077765;28;20401;-49
2022/06/05 10:29:13;;;;;;;16.85;9.25;;;;;;;22.54;50.79;101433.09;5030342;28;1081999;-51
2022/06/05 10:31:52;;;;;;;19.30;8.93;;;;;;;22.54;50.44;101427.69;5080022;28;20056;-48
2022/06/05 10:34:41;;;;;;;14.68;7.80;;;;;;;22.54;50.55;101427.69;5075319;28;20724;-52
2022/06/05 10:37:20;;;;;;;15.27;8.60;;;;;;;22.54;50.83;101425.00;5085748;28;20036;-51
2022/06/05 10:40:06;;;;;;;14.18;7.93;;;;;;;22.55;50.66;101418.59;5077917;28;20047;-52
2022/06/05 10:42:45;;;;;;;15.45;8.35;;;;;;;22.55;50.87;101418.59;5075615;28;20354;-52
2022/06/05 10:45:39;;;;;;;14.13;8.13;;;;;;;22.56;50.63;101411.34;5075506;28;20044;-51
2022/06/05 10:48:22;;;;;;;12.27;7.28;;;;;;;22.56;50.55;101409.47;5077540;28;20048;-50
2022/06/05 10:50:55;;;;;;;12.15;7.53;;;;;;;22.57;50.66;101411.16;5076255;28;20051;-49
2022/06/05 10:53:22;;;;;;;13.45;7.88;;;;;;;22.58;50.33;101407.44;5069401;28;20051;-50
2022/06/05 10:56:03;;;;;;;13.38;7.25;;;;;;;22.59;50.56;101410.97;5074849;28;20178;-51
2022/06/05 10:58:48;;;;;;;12.00;7.30;;;;;;;22.59;50.72;101408.28;5077206;28;20501;-53
2022/06/05 11:01:50;;;;;;;13.55;7.15;;;;;;;22.59;50.92;101403.75;5074834;28;20051;-52
2022/06/05 11:04:17;;;;;;;9.40;6.78;;;;;;;22.61;50.62;101411.66;5072919;28;20042;-52
2022/06/05 11:06:59;;;;;;;11.90;6.35;;;;;;;22.61;50.49;101409.78;5071948;28;20036;-52
2022/06/05 11:09:26;;;;;;;12.88;7.50;;;;;;;22.61;50.32;101407.09;5072971;28;20051;-53
2022/06/05 11:15:09;;;;;;;15.23;6.47;;;;;;;22.63;50.70;101402.38;5072780;28;20064;-52
2022/06/05 11:18:12;;;;;;;12.57;6.75;;;;;;;22.63;50.25;101405.09;5071399;28;20055;-51
2022/06/05 11:20:42;;;;;;;10.15;6.82;;;;;;;22.64;50.46;101398.66;5065923;28;20070;-52
2022/06/05 11:23:18;;;;;;;10.25;6.30;;;;;;;22.65;50.80;101403.03;5069551;28;20574;-50
2022/06/05 11:26:15;;;;;;;8.77;5.93;;;;;;;22.65;50.63;101396.78;5073588;28;20040;-52
2022/06/05 11:28:57;;;;;;;9.48;6.30;;;;;;;22.65;50.25;101386.81;5076244;28;20052;-50
2022/06/05 11:31:59;;;;;;;10.25;5.57;;;;;;;22.66;50.69;101384.97;5069084;28;20150;-49
2022/06/05 11:34:39;;;;;;;9.88;6.40;;;;;;;22.67;50.62;101392.91;5057849;28;20309;-52
2022/06/05 11:37:20;;;;;;;9.32;6.10;;;;;;;22.66;50.72;101383.09;5072729;28;20128;-50
2022/06/05 11:40:01;;;;;;;9.45;6.40;;;;;;;22.67;50.77;101378.53;5073891;28;20063;-50
2022/06/05 11:42:34;;;;;;;10.90;6.57;;;;;;;22.68;50.62;101385.66;5066775;28;20051;-49
2022/06/05 11:45:03;;;;;;;12.05;6.63;;;;;;;22.69;50.75;101378.38;5072193;28;20050;-48
2022/06/05 11:48:00;;;;;;;10.40;6.40;;;;;;;22.69;50.60;101379.22;5076000;28;20054;-47
2022/06/05 11:50:36;;;;;;;9.23;6.40;;;;;;;22.70;50.56;101374.66;5076770;28;20356;-49
2022/06/05 11:53:03;;;;;;;10.05;6.45;;;;;;;22.70;50.70;101382.75;5074286;28;20175;-48
2022/06/05 11:55:40;;;;;;;9.05;6.35;;;;;;;22.70;50.46;101374.66;5074947;28;20045;-49
2022/06/05 11:58:38;;;;;;;8.20;5.80;;;;;;;22.70;50.58;101377.34;5071225;28;20056;-51
2022/06/05 12:01:14;;;;;;;8.98;6.38;;;;;;;22.71;50.75;101376.34;5070842;28;20048;-50
2022/06/05 12:04:11;;;;;;;14.57;6.32;;;;;;;22.71;50.37;101373.63;5073826;28;20332;-49
2022/06/05 12:06:44;;;;;;;9.57;6.18;;;;;;;22.71;50.82;101368.22;5072613;28;20048;-50
2022/06/05 12:09:16;;;;;;;8.98;6.45;;;;;;;22.73;50.96;101368.91;5070134;28;20044;-48